createdAt,value
2023-03-11T00:00:52.528Z,4.40
2023-03-11T00:03:19.795Z,4.40
2023-03-11T00:05:46.823Z,4.40
2023-03-11T00:08:15.378Z,4.40
2023-03-11T00:10:42.962Z,4.40
2023-03-11T00:13:10.983Z,4.30
2023-03-11T00:15:37.984Z,4.30
2023-03-11T00:18:04.873Z,4.30
2023-03-11T00:20:33.396Z,4.30
2023-03-11T00:23:00.501Z,4.30
2023-03-11T00:25:28.714Z,4.40
2023-03-11T00:27:55.647Z,4.30
2023-03-11T00:30:23.083Z,4.30
2023-03-11T00:32:54.309Z,4.30
2023-03-11T00:35:23.048Z,4.30
2023-03-11T00:37:52.430Z,4.20
2023-03-11T00:40:20.187Z,4.20
2023-03-11T00:42:46.847Z,4.20
2023-03-11T00:45:13.789Z,4.20
2023-03-11T00:47:40.407Z,4.20
2023-03-11T00:50:07.749Z,4.20
2023-03-11T00:52:34.438Z,4.20
2023-03-11T00:55:01.161Z,4.20
2023-03-11T00:57:29.184Z,4.20
2023-03-11T00:59:56.349Z,4.20
2023-03-11T01:02:23.023Z,4.10
2023-03-11T01:04:53.295Z,4.10
2023-03-11T01:07:19.890Z,4.00
2023-03-11T01:09:46.572Z,4.00
2023-03-11T01:12:13.389Z,4.00
2023-03-11T01:14:39.945Z,3.90
2023-03-11T01:17:06.500Z,3.90
2023-03-11T01:19:33.111Z,3.80
2023-03-11T01:21:59.697Z,3.90
2023-03-11T01:24:26.274Z,3.80
2023-03-11T01:26:52.830Z,3.80
2023-03-11T01:29:19.385Z,3.80
2023-03-11T01:31:45.921Z,3.90
2023-03-11T01:34:12.767Z,3.70
2023-03-11T01:36:39.330Z,3.70
2023-03-11T01:39:06.037Z,3.70
2023-03-11T01:41:32.968Z,3.70
2023-03-11T01:43:59.597Z,3.70
2023-03-11T01:46:27.240Z,3.60
2023-03-11T01:48:53.832Z,3.60
2023-03-11T01:51:43.660Z,3.60
2023-03-11T01:54:12.796Z,3.60
2023-03-11T01:56:41.182Z,3.70
2023-03-11T01:59:08.899Z,3.60
2023-03-11T02:01:38.200Z,3.60
2023-03-11T02:04:04.854Z,3.60
2023-03-11T02:06:32.423Z,3.60
2023-03-11T02:09:00.373Z,3.50
2023-03-11T02:11:28.702Z,3.50
2023-03-11T02:13:57.565Z,3.50
2023-03-11T02:16:24.192Z,3.60
2023-03-11T02:18:50.891Z,3.50
2023-03-11T02:21:22.618Z,3.50
2023-03-11T02:24:08.037Z,3.50
2023-03-11T02:26:43.197Z,3.50
2023-03-11T02:29:10.973Z,3.40
2023-03-11T02:31:38.504Z,3.40
2023-03-11T02:34:08.001Z,3.40
2023-03-11T02:36:37.000Z,3.40
2023-03-11T02:39:04.442Z,3.40
2023-03-11T02:41:32.122Z,3.50
2023-03-11T02:43:59.000Z,3.40
2023-03-11T02:46:25.845Z,3.40
2023-03-11T02:48:53.449Z,3.30
2023-03-11T02:51:20.173Z,3.30
2023-03-11T02:53:51.481Z,3.20
2023-03-11T02:56:18.096Z,3.20
2023-03-11T02:58:44.655Z,3.30
2023-03-11T03:01:11.296Z,3.10
2023-03-11T03:03:37.950Z,3.10
2023-03-11T03:06:04.799Z,3.10
2023-03-11T03:08:31.763Z,3.10
2023-03-11T03:10:59.841Z,3.20
2023-03-11T03:13:27.290Z,3.20
2023-03-11T03:15:53.881Z,3.20
2023-03-11T03:18:20.478Z,3.20
2023-03-11T03:20:47.065Z,3.20
2023-03-11T03:23:14.689Z,3.20
2023-03-11T03:25:44.887Z,3.20
2023-03-11T03:28:12.304Z,3.10
2023-03-11T03:30:39.397Z,3.10
2023-03-11T03:33:07.000Z,3.10
2023-03-11T03:35:34.090Z,3.10
2023-03-11T03:38:01.297Z,3.20
2023-03-11T03:40:27.964Z,3.20
2023-03-11T03:42:54.551Z,3.20
2023-03-11T03:45:21.120Z,3.10
2023-03-11T03:47:47.677Z,3.10
2023-03-11T03:50:14.548Z,3.10
2023-03-11T03:52:41.129Z,3.10
2023-03-11T03:55:08.085Z,3.10
2023-03-11T03:57:34.687Z,3.10
2023-03-11T04:00:01.260Z,3.10
2023-03-11T04:02:28.170Z,3.10
2023-03-11T04:04:54.831Z,3.00
2023-03-11T04:07:21.428Z,3.00
2023-03-11T04:09:48.128Z,3.00
2023-03-11T04:12:15.364Z,3.00
2023-03-11T04:14:42.388Z,3.10
2023-03-11T04:17:10.879Z,3.10
2023-03-11T04:19:37.570Z,3.00
2023-03-11T04:22:04.230Z,3.00
2023-03-11T04:24:30.807Z,3.00
2023-03-11T04:26:57.534Z,3.00
2023-03-11T04:29:24.089Z,3.00
2023-03-11T04:31:50.670Z,3.00
2023-03-11T04:34:17.209Z,3.00
2023-03-11T04:36:43.837Z,2.70
2023-03-11T04:39:10.397Z,3.00
2023-03-11T04:41:37.173Z,2.90
2023-03-11T04:44:03.759Z,2.90
2023-03-11T04:46:30.366Z,2.80
2023-03-11T04:48:57.275Z,2.90
2023-03-11T04:51:23.984Z,2.90
2023-03-11T04:53:50.572Z,3.00
2023-03-11T04:56:17.255Z,2.90
2023-03-11T04:58:43.905Z,2.80
2023-03-11T05:01:10.492Z,2.80
2023-03-11T05:03:37.085Z,2.80
2023-03-11T05:06:03.897Z,2.80
2023-03-11T05:08:30.547Z,2.70
2023-03-11T05:10:57.131Z,2.70
2023-03-11T05:13:23.739Z,2.90
2023-03-11T05:15:50.450Z,2.80
2023-03-11T05:18:17.313Z,2.80
2023-03-11T05:20:43.956Z,2.80
2023-03-11T05:23:10.608Z,2.80
2023-03-11T05:25:37.205Z,2.80
2023-03-11T05:28:04.324Z,2.80
2023-03-11T05:30:30.897Z,2.80
2023-03-11T05:32:57.572Z,2.70
2023-03-11T05:35:24.259Z,2.70
2023-03-11T05:37:51.051Z,2.70
2023-03-11T05:40:18.180Z,2.70
2023-03-11T05:42:44.964Z,2.70
2023-03-11T05:45:11.560Z,2.60
2023-03-11T05:47:38.137Z,2.60
2023-03-11T05:50:05.181Z,2.60
2023-03-11T05:52:33.844Z,2.60
2023-03-11T05:55:00.525Z,2.60
2023-03-11T05:57:27.112Z,2.70
2023-03-11T05:59:53.685Z,2.70
2023-03-11T06:02:21.196Z,2.80
2023-03-11T06:04:48.220Z,2.70
2023-03-11T06:07:16.163Z,2.80
2023-03-11T06:09:42.700Z,2.80
2023-03-11T06:12:09.362Z,2.90
2023-03-11T06:14:36.111Z,2.90
2023-03-11T06:17:04.098Z,2.90
2023-03-11T06:19:30.649Z,2.90
2023-03-11T06:21:57.224Z,2.90
2023-03-11T06:24:23.783Z,3.00
2023-03-11T06:26:53.476Z,3.00
2023-03-11T06:29:21.984Z,3.00
2023-03-11T06:31:48.590Z,3.00
2023-03-11T06:34:15.253Z,3.00
2023-03-11T06:36:41.839Z,3.00
2023-03-11T06:39:09.839Z,3.10
2023-03-11T06:41:36.483Z,3.10
2023-03-11T06:44:04.198Z,3.10
2023-03-11T06:46:30.998Z,3.20
2023-03-11T06:48:57.690Z,3.20
2023-03-11T06:51:24.539Z,3.10
2023-03-11T06:53:52.326Z,3.20
2023-03-11T06:56:19.885Z,3.20
2023-03-11T06:58:46.781Z,3.20
2023-03-11T07:01:14.865Z,3.20
2023-03-11T07:03:41.952Z,3.30
2023-03-11T07:06:13.643Z,3.20
2023-03-11T07:08:40.551Z,3.30
2023-03-11T07:11:08.322Z,3.20
2023-03-11T07:13:35.310Z,3.30
2023-03-11T07:16:02.840Z,3.30
2023-03-11T07:18:29.498Z,3.20
2023-03-11T07:20:56.137Z,3.20
2023-03-11T07:23:22.951Z,3.30
2023-03-11T07:25:49.606Z,3.40
2023-03-11T07:28:16.175Z,3.50
2023-03-11T07:30:44.460Z,3.80
2023-03-11T07:33:11.074Z,4.20
2023-03-11T07:35:37.757Z,4.50
2023-03-11T07:38:04.465Z,4.60
2023-03-11T07:40:31.017Z,4.70
2023-03-11T07:42:58.009Z,4.80
2023-03-11T07:45:24.545Z,4.90
2023-03-11T07:47:52.021Z,5.00
2023-03-11T07:50:19.117Z,5.00
2023-03-11T07:52:45.686Z,5.10
2023-03-11T07:55:12.231Z,5.40
2023-03-11T07:57:38.905Z,5.40
2023-03-11T08:00:06.188Z,5.40
2023-03-11T08:02:32.860Z,5.50
2023-03-11T08:04:59.416Z,5.50
2023-03-11T08:07:25.962Z,5.60
2023-03-11T08:09:52.729Z,5.50
2023-03-11T08:12:19.385Z,5.70
2023-03-11T08:14:46.005Z,6.00
2023-03-11T08:17:12.601Z,6.70
2023-03-11T08:19:39.136Z,7.10
2023-03-11T08:22:05.723Z,7.30
2023-03-11T08:24:32.381Z,7.30
2023-03-11T08:26:59.040Z,7.30
2023-03-11T08:29:25.722Z,7.30
2023-03-11T08:31:52.277Z,7.20
2023-03-11T08:34:21.094Z,7.10
2023-03-11T08:36:47.833Z,7.20
2023-03-11T08:39:14.450Z,7.20
2023-03-11T08:41:41.005Z,7.20
2023-03-11T08:44:07.675Z,7.40
2023-03-11T08:46:35.547Z,7.70
2023-03-11T08:49:04.726Z,7.90
2023-03-11T08:51:31.988Z,8.10
2023-03-11T08:53:59.178Z,8.70
2023-03-11T08:56:26.054Z,9.50
2023-03-11T08:58:52.884Z,9.70
2023-03-11T09:01:20.255Z,9.60
2023-03-11T09:03:47.245Z,9.70
2023-03-11T09:06:15.399Z,10.00
2023-03-11T09:08:42.995Z,10.10
2023-03-11T09:11:10.011Z,10.40
2023-03-11T09:13:36.642Z,10.80
2023-03-11T09:16:05.823Z,10.80
2023-03-11T09:18:32.713Z,11.30
2023-03-11T09:21:00.344Z,13.40
2023-03-11T09:23:26.926Z,13.90
2023-03-11T09:25:53.987Z,14.10
2023-03-11T09:28:20.727Z,13.40
2023-03-11T09:30:47.495Z,12.90
2023-03-11T09:33:14.036Z,12.00
2023-03-11T09:35:41.044Z,11.20
2023-03-11T09:38:07.636Z,10.40
2023-03-11T09:40:47.242Z,10.00
2023-03-11T09:43:31.368Z,9.50
2023-03-11T09:46:06.420Z,9.20
2023-03-11T09:48:48.852Z,9.00
2023-03-11T09:51:29.761Z,9.10
2023-03-11T09:54:09.043Z,9.60
2023-03-11T09:56:37.083Z,10.10
2023-03-11T09:59:09.295Z,10.00
2023-03-11T10:01:37.600Z,9.70
2023-03-11T10:04:13.112Z,9.40
2023-03-11T10:06:40.506Z,9.20
2023-03-11T10:09:16.907Z,8.70
2023-03-11T10:11:51.303Z,8.40
2023-03-11T10:14:21.063Z,8.00
2023-03-11T10:16:50.749Z,7.60
2023-03-11T10:19:23.139Z,7.50
2023-03-11T10:22:08.129Z,7.20
2023-03-11T10:24:37.746Z,7.20
2023-03-11T10:27:10.353Z,7.40
2023-03-11T10:29:50.336Z,7.70
2023-03-11T10:32:25.792Z,8.00
2023-03-11T10:34:56.883Z,8.90
2023-03-11T10:37:29.003Z,9.60
2023-03-11T10:40:07.789Z,10.00
2023-03-11T10:42:35.077Z,10.00
2023-03-11T10:45:02.066Z,9.80
2023-03-11T10:47:29.210Z,9.60
2023-03-11T10:49:55.769Z,9.50
2023-03-11T10:52:23.189Z,9.30
2023-03-11T10:54:59.102Z,9.20
2023-03-11T10:57:27.992Z,9.20
2023-03-11T10:59:58.636Z,8.90
2023-03-11T11:02:26.101Z,8.90
2023-03-11T11:05:04.172Z,8.60
2023-03-11T11:07:32.106Z,8.40
2023-03-11T11:10:17.016Z,8.50
2023-03-11T11:12:50.801Z,8.60
2023-03-11T11:15:25.229Z,8.80
2023-03-11T11:17:53.093Z,9.40
2023-03-11T11:20:20.070Z,11.00
2023-03-11T11:22:52.189Z,12.80
2023-03-11T11:25:26.624Z,13.80
2023-03-11T11:27:54.458Z,13.40
2023-03-11T11:30:21.196Z,12.70
2023-03-11T11:32:47.861Z,11.80
2023-03-11T11:35:15.497Z,10.80
2023-03-11T11:37:43.856Z,10.30
2023-03-11T11:40:16.573Z,9.90
2023-03-11T11:42:52.064Z,9.50
2023-03-11T11:45:36.873Z,9.00
2023-03-11T11:48:06.103Z,8.90
2023-03-11T11:50:34.121Z,8.80
2023-03-11T11:53:15.153Z,8.80
2023-03-11T11:55:44.789Z,8.60
2023-03-11T11:58:14.341Z,8.60
2023-03-11T12:00:45.735Z,8.60
2023-03-11T12:03:38.983Z,8.50
2023-03-11T12:06:12.293Z,8.30
2023-03-11T12:08:45.797Z,8.50
2023-03-11T12:11:40.906Z,9.00
2023-03-11T12:14:08.401Z,10.00
2023-03-11T12:16:41.523Z,10.10
2023-03-11T12:19:11.263Z,10.40
2023-03-11T12:21:37.888Z,10.30
2023-03-11T12:24:04.449Z,10.40
2023-03-11T12:26:35.349Z,10.50
2023-03-11T12:29:22.335Z,10.50
2023-03-11T12:31:49.053Z,10.10
2023-03-11T12:34:19.582Z,9.90
2023-03-11T12:36:46.953Z,9.50
2023-03-11T12:39:33.674Z,9.10
2023-03-11T12:42:18.956Z,8.70
2023-03-11T12:44:46.056Z,8.20
2023-03-11T12:47:23.317Z,7.90
2023-03-11T12:49:51.925Z,7.90
2023-03-11T12:52:26.610Z,7.80
2023-03-11T12:54:59.320Z,7.60
2023-03-11T12:57:36.442Z,7.30
2023-03-11T13:00:23.149Z,7.40
2023-03-11T13:02:55.935Z,7.40
2023-03-11T13:05:39.408Z,7.50
2023-03-11T13:08:12.693Z,7.50
2023-03-11T13:10:40.997Z,7.70
2023-03-11T13:13:26.403Z,7.80
2023-03-11T13:15:53.360Z,7.80
2023-03-11T13:18:27.777Z,7.90
2023-03-11T13:21:04.091Z,7.90
2023-03-11T13:23:30.680Z,7.80
2023-03-11T13:25:57.260Z,7.60
2023-03-11T13:28:42.696Z,7.60
2023-03-11T13:31:18.393Z,7.20
2023-03-11T13:33:51.207Z,7.10
2023-03-11T13:36:36.650Z,6.80
2023-03-11T13:39:18.532Z,6.70
2023-03-11T13:41:45.663Z,6.70
2023-03-11T13:44:14.759Z,6.50
2023-03-11T13:46:42.796Z,6.50
2023-03-11T13:49:24.627Z,6.40
2023-03-11T13:51:53.398Z,6.30
2023-03-11T13:54:29.115Z,6.20
2023-03-11T13:56:59.728Z,6.10
2023-03-11T13:59:27.410Z,6.30
2023-03-11T14:01:55.821Z,6.20
2023-03-11T14:04:25.732Z,6.20
2023-03-11T14:06:52.515Z,6.20
2023-03-11T14:09:19.869Z,6.20
2023-03-11T14:11:48.725Z,6.30
2023-03-11T14:14:31.953Z,6.10
2023-03-11T14:17:01.374Z,6.30
2023-03-11T14:19:28.841Z,6.30
2023-03-11T14:21:55.469Z,6.20
2023-03-11T14:24:23.680Z,6.20
2023-03-11T14:26:53.603Z,6.30
2023-03-11T14:29:20.794Z,6.40
2023-03-11T14:31:47.519Z,6.60
2023-03-11T14:34:18.634Z,6.70
2023-03-11T14:36:51.022Z,6.80
2023-03-11T14:39:33.772Z,7.00
2023-03-11T14:42:06.682Z,7.30
2023-03-11T14:44:39.401Z,7.70
2023-03-11T14:47:12.115Z,8.00
2023-03-11T14:49:39.397Z,8.20
2023-03-11T14:52:08.522Z,8.30
2023-03-11T14:54:36.260Z,8.10
2023-03-11T14:57:06.446Z,7.80
2023-03-11T14:59:34.047Z,7.70
2023-03-11T15:02:19.652Z,7.50
2023-03-11T15:04:46.693Z,7.50
2023-03-11T15:07:13.389Z,7.40
2023-03-11T15:09:40.773Z,7.20
2023-03-11T15:12:07.958Z,7.00
2023-03-11T15:14:36.235Z,6.90
2023-03-11T15:17:10.459Z,6.90
2023-03-11T15:19:39.941Z,6.60
2023-03-11T15:22:21.383Z,6.40
2023-03-11T15:24:58.952Z,6.40
2023-03-11T15:27:33.785Z,6.20
2023-03-11T15:30:01.071Z,6.20
2023-03-11T15:32:42.176Z,6.20
2023-03-11T15:35:10.643Z,6.00
2023-03-11T15:37:37.754Z,6.00
2023-03-11T15:40:23.425Z,6.10
2023-03-11T15:43:10.927Z,6.00
2023-03-11T15:45:37.596Z,5.80
2023-03-11T15:48:04.216Z,5.80
2023-03-11T15:50:46.758Z,5.70
2023-03-11T15:53:18.665Z,5.60
2023-03-11T15:55:45.382Z,5.70
2023-03-11T15:58:14.058Z,5.60
2023-03-11T16:00:42.427Z,5.50
2023-03-11T16:03:08.983Z,5.50
2023-03-11T16:05:35.516Z,5.50
2023-03-11T16:08:02.139Z,5.50
2023-03-11T16:10:28.885Z,5.50
2023-03-11T16:12:55.985Z,5.60
2023-03-11T16:15:28.602Z,5.50
2023-03-11T16:17:56.792Z,5.50
2023-03-11T16:20:24.201Z,5.40
2023-03-11T16:22:52.544Z,5.40
2023-03-11T16:25:28.283Z,5.20
2023-03-11T16:27:55.721Z,5.20
2023-03-11T16:30:23.059Z,5.30
2023-03-11T16:32:49.596Z,5.20
2023-03-11T16:35:17.782Z,5.10
2023-03-11T16:37:44.546Z,5.10
2023-03-11T16:40:12.043Z,5.20
2023-03-11T16:42:38.695Z,5.20
2023-03-11T16:45:05.541Z,5.10
2023-03-11T16:47:32.112Z,5.10
2023-03-11T16:49:58.680Z,5.10
2023-03-11T16:52:25.376Z,5.00
2023-03-11T16:54:51.977Z,5.00
2023-03-11T16:57:18.702Z,5.00
2023-03-11T16:59:45.726Z,4.90
2023-03-11T17:02:12.322Z,4.90
2023-03-11T17:04:38.923Z,4.90
2023-03-11T17:07:05.933Z,4.80
2023-03-11T17:09:33.122Z,4.80
2023-03-11T17:11:59.693Z,4.80
2023-03-11T17:14:26.503Z,4.70
2023-03-11T17:16:53.087Z,4.70
2023-03-11T17:19:19.703Z,4.60
2023-03-11T17:21:46.469Z,4.70
2023-03-11T17:24:13.122Z,4.60
2023-03-11T17:26:39.693Z,4.50
2023-03-11T17:29:06.269Z,4.40
2023-03-11T17:31:32.996Z,4.50
2023-03-11T17:33:59.629Z,4.40
2023-03-11T17:36:26.521Z,4.40
2023-03-11T17:38:54.274Z,4.50
2023-03-11T17:41:21.377Z,4.40
2023-03-11T17:43:50.248Z,4.30
2023-03-11T17:46:18.768Z,4.30
2023-03-11T17:48:46.677Z,4.40
2023-03-11T17:51:14.574Z,4.30
2023-03-11T17:53:43.890Z,4.30
2023-03-11T17:56:12.874Z,4.20
2023-03-11T17:58:39.579Z,4.40
2023-03-11T18:01:07.415Z,4.30
2023-03-11T18:03:34.225Z,4.30
2023-03-11T18:06:01.958Z,4.30
2023-03-11T18:08:29.058Z,4.30
2023-03-11T18:10:58.149Z,4.30
2023-03-11T18:13:24.794Z,4.30
2023-03-11T18:15:58.446Z,4.20
2023-03-11T18:18:25.094Z,4.20
2023-03-11T18:20:51.666Z,4.20
2023-03-11T18:23:18.219Z,4.20
2023-03-11T18:25:45.314Z,4.30
2023-03-11T18:28:11.938Z,4.30
2023-03-11T18:30:38.526Z,4.30
2023-03-11T18:33:05.166Z,4.20
2023-03-11T18:35:31.801Z,4.20
2023-03-11T18:37:58.366Z,4.30
2023-03-11T18:40:26.807Z,4.20
2023-03-11T18:42:53.497Z,4.20
2023-03-11T18:45:20.112Z,4.00
2023-03-11T18:47:46.762Z,4.00
2023-03-11T18:50:13.466Z,4.00
2023-03-11T18:52:40.045Z,4.00
2023-03-11T18:55:06.731Z,4.00
2023-03-11T18:57:33.306Z,4.00
2023-03-11T18:59:59.981Z,3.90
2023-03-11T19:02:26.548Z,3.90
2023-03-11T19:04:53.170Z,3.80
2023-03-11T19:07:19.793Z,3.80
2023-03-11T19:09:48.244Z,3.70
2023-03-11T19:12:14.800Z,3.60
2023-03-11T19:14:41.400Z,3.60
2023-03-11T19:17:08.148Z,3.50
2023-03-11T19:19:34.739Z,3.50
2023-03-11T19:22:01.350Z,3.30
2023-03-11T19:24:27.934Z,3.30
2023-03-11T19:26:54.477Z,3.20
2023-03-11T19:29:23.676Z,3.10
2023-03-11T19:31:50.511Z,3.10
2023-03-11T19:34:17.075Z,3.10
2023-03-11T19:36:43.680Z,3.00
2023-03-11T19:39:10.260Z,2.90
2023-03-11T19:41:36.929Z,2.80
2023-03-11T19:44:04.230Z,2.80
2023-03-11T19:46:34.335Z,2.60
2023-03-11T19:49:01.101Z,2.70
2023-03-11T19:51:32.872Z,2.60
2023-03-11T19:54:05.592Z,2.60
2023-03-11T19:56:32.166Z,2.50
2023-03-11T19:58:58.678Z,2.50
2023-03-11T20:01:28.163Z,2.40
2023-03-11T20:03:54.809Z,2.40
2023-03-11T20:06:22.743Z,2.30
2023-03-11T20:08:50.088Z,2.30
2023-03-11T20:11:16.913Z,2.20
2023-03-11T20:13:44.122Z,2.30
2023-03-11T20:16:12.691Z,2.30
2023-03-11T20:18:39.914Z,2.20
2023-03-11T20:21:07.813Z,2.20
2023-03-11T20:23:34.642Z,2.20
2023-03-11T20:26:04.860Z,2.10
2023-03-11T20:28:31.469Z,2.10
2023-03-11T20:30:58.185Z,2.00
2023-03-11T20:33:24.857Z,2.00
2023-03-11T20:35:51.541Z,2.00
2023-03-11T20:38:18.248Z,2.00
2023-03-11T20:40:44.888Z,1.90
2023-03-11T20:43:11.577Z,1.90
2023-03-11T20:45:38.273Z,1.90
2023-03-11T20:48:04.919Z,1.90
2023-03-11T20:50:31.540Z,1.90
2023-03-11T20:52:58.193Z,1.80
2023-03-11T20:55:25.572Z,1.80
2023-03-11T20:57:54.244Z,1.80
2023-03-11T21:00:21.082Z,1.80
2023-03-11T21:02:47.785Z,1.80
2023-03-11T21:05:14.515Z,1.80
2023-03-11T21:07:41.195Z,1.80
2023-03-11T21:10:09.843Z,1.90
2023-03-11T21:12:36.612Z,1.80
2023-03-11T21:15:03.855Z,1.80
2023-03-11T21:17:30.590Z,1.70
2023-03-11T21:19:57.417Z,1.70
2023-03-11T21:22:23.961Z,1.70
2023-03-11T21:24:51.361Z,1.70
2023-03-11T21:27:20.906Z,1.70
2023-03-11T21:29:47.518Z,1.60
2023-03-11T21:32:14.322Z,1.60
2023-03-11T21:34:41.015Z,1.60
2023-03-11T21:37:07.649Z,1.50
2023-03-11T21:39:34.370Z,1.50
2023-03-11T21:42:01.043Z,1.40
2023-03-11T21:44:27.911Z,1.40
2023-03-11T21:46:54.560Z,1.40
2023-03-11T21:49:21.616Z,1.40
2023-03-11T21:51:48.223Z,1.40
2023-03-11T21:54:15.352Z,1.30
2023-03-11T21:56:41.996Z,1.30
2023-03-11T21:59:08.870Z,1.30
2023-03-11T22:01:35.671Z,1.20
2023-03-11T22:04:02.562Z,1.10
2023-03-11T22:06:30.898Z,1.10
2023-03-11T22:08:57.702Z,1.10
2023-03-11T22:11:24.372Z,1.00
2023-03-11T22:13:52.070Z,1.00
2023-03-11T22:16:19.207Z,1.00
2023-03-11T22:18:46.711Z,0.50
2023-03-11T22:21:16.897Z,1.00
2023-03-11T22:23:44.609Z,0.90
2023-03-11T22:26:11.235Z,0.90
2023-03-11T22:28:37.811Z,0.90
2023-03-11T22:31:08.713Z,0.90
2023-03-11T22:33:35.359Z,0.80
2023-03-11T22:36:04.331Z,0.70
2023-03-11T22:38:31.482Z,0.70
2023-03-11T22:41:00.280Z,0.70
2023-03-11T22:43:27.369Z,0.70
2023-03-11T22:45:54.018Z,0.70
2023-03-11T22:48:20.585Z,0.60
2023-03-11T22:50:47.321Z,0.60
2023-03-11T22:53:15.474Z,0.60
2023-03-11T22:55:42.832Z,0.50
2023-03-11T22:58:10.001Z,0.60
2023-03-11T23:00:36.840Z,0.40
2023-03-11T23:03:03.634Z,0.40
2023-03-11T23:05:30.415Z,0.40
2023-03-11T23:07:56.970Z,0.40
2023-03-11T23:10:23.680Z,0.30
2023-03-11T23:12:50.193Z,0.30
2023-03-11T23:15:17.888Z,0.30
2023-03-11T23:17:44.956Z,0.20
2023-03-11T23:20:13.294Z,0.30
2023-03-11T23:22:40.737Z,0.30
2023-03-11T23:25:08.882Z,0.20
2023-03-11T23:27:35.613Z,0.20
2023-03-11T23:30:02.363Z,0.20
2023-03-11T23:32:28.919Z,0.20
2023-03-11T23:34:55.503Z,0.20
2023-03-11T23:37:22.172Z,0.10
2023-03-11T23:39:48.785Z,0.20
2023-03-11T23:42:25.502Z,0.10
2023-03-11T23:44:53.027Z,0.10
2023-03-11T23:47:19.772Z,0.10
2023-03-11T23:49:46.434Z,0.10
2023-03-11T23:52:13.133Z,0.10
2023-03-11T23:54:39.697Z,0.10
2023-03-11T23:57:06.275Z,0.00
2023-03-11T23:59:32.969Z,0.00
